sensor_id;sensor_type;location;lat;lon;timestamp;P1;durP1;ratioP1;P2;durP2;ratioP2
22017;SDS011;11173;51.050;7.108;2024-01-27T00:06:26;3.10;;;1.45;;
22017;SDS011;11173;51.050;7.108;2024-01-27T00:16:26;2.42;;;1.70;;
22017;SDS011;11173;51.050;7.108;2024-01-27T00:26:27;1.95;;;1.52;;
22017;SDS011;11173;51.050;7.108;2024-01-27T00:36:28;2.25;;;1.63;;
22017;SDS011;11173;51.050;7.108;2024-01-27T00:46:28;1.73;;;1.40;;
22017;SDS011;11173;51.050;7.108;2024-01-27T00:56:28;4.50;;;2.00;;
22017;SDS011;11173;51.050;7.108;2024-01-27T01:06:29;2.22;;;1.90;;
22017;SDS011;11173;51.050;7.108;2024-01-27T01:16:29;1.73;;;1.63;;
22017;SDS011;11173;51.050;7.108;2024-01-27T01:26:29;1.00;;;1.00;;
22017;SDS011;11173;51.050;7.108;2024-01-27T01:36:30;0.98;;;0.98;;
22017;SDS011;11173;51.050;7.108;2024-01-27T01:46:30;1.40;;;0.98;;
22017;SDS011;11173;51.050;7.108;2024-01-27T01:56:30;1.10;;;1.10;;
22017;SDS011;11173;51.050;7.108;2024-01-27T02:06:30;1.20;;;1.20;;
22017;SDS011;11173;51.050;7.108;2024-01-27T02:16:31;1.30;;;1.30;;
22017;SDS011;11173;51.050;7.108;2024-01-27T02:26:31;1.58;;;1.50;;
22017;SDS011;11173;51.050;7.108;2024-01-27T02:36:31;1.38;;;1.33;;
22017;SDS011;11173;51.050;7.108;2024-01-27T02:46:31;1.30;;;1.30;;
22017;SDS011;11173;51.050;7.108;2024-01-27T02:56:32;1.23;;;1.23;;
22017;SDS011;11173;51.050;7.108;2024-01-27T03:06:32;1.40;;;1.40;;
22017;SDS011;11173;51.050;7.108;2024-01-27T03:16:33;1.50;;;1.50;;
22017;SDS011;11173;51.050;7.108;2024-01-27T03:26:33;3.20;;;1.80;;
22017;SDS011;11173;51.050;7.108;2024-01-27T03:36:33;4.60;;;2.90;;
22017;SDS011;11173;51.050;7.108;2024-01-27T03:46:33;1.90;;;1.80;;
22017;SDS011;11173;51.050;7.108;2024-01-27T03:56:34;1.55;;;1.52;;
22017;SDS011;11173;51.050;7.108;2024-01-27T04:06:40;1.50;;;1.40;;
22017;SDS011;11173;51.050;7.108;2024-01-27T04:16:40;1.30;;;1.30;;
22017;SDS011;11173;51.050;7.108;2024-01-27T04:26:40;1.20;;;1.20;;
22017;SDS011;11173;51.050;7.108;2024-01-27T04:36:40;1.20;;;1.20;;
22017;SDS011;11173;51.050;7.108;2024-01-27T04:46:41;1.55;;;1.45;;
22017;SDS011;11173;51.050;7.108;2024-01-27T04:56:41;1.40;;;1.33;;
22017;SDS011;11173;51.050;7.108;2024-01-27T05:06:45;1.20;;;1.20;;
22017;SDS011;11173;51.050;7.108;2024-01-27T05:16:49;1.45;;;1.38;;
22017;SDS011;11173;51.050;7.108;2024-01-27T05:26:49;1.40;;;1.40;;
22017;SDS011;11173;51.050;7.108;2024-01-27T05:36:49;1.45;;;1.45;;
22017;SDS011;11173;51.050;7.108;2024-01-27T05:46:49;1.80;;;1.70;;
22017;SDS011;11173;51.050;7.108;2024-01-27T05:56:50;1.65;;;1.55;;
22017;SDS011;11173;51.050;7.108;2024-01-27T06:06:50;1.33;;;1.33;;
22017;SDS011;11173;51.050;7.108;2024-01-27T06:16:50;1.38;;;1.38;;
22017;SDS011;11173;51.050;7.108;2024-01-27T06:26:51;1.60;;;1.60;;
22017;SDS011;11173;51.050;7.108;2024-01-27T06:36:51;2.25;;;2.05;;
22017;SDS011;11173;51.050;7.108;2024-01-27T06:46:51;4.13;;;2.50;;
22017;SDS011;11173;51.050;7.108;2024-01-27T06:56:52;6.32;;;3.80;;
22017;SDS011;11173;51.050;7.108;2024-01-27T07:06:52;2.70;;;2.53;;
22017;SDS011;11173;51.050;7.108;2024-01-27T07:16:52;5.82;;;3.92;;
22017;SDS011;11173;51.050;7.108;2024-01-27T07:26:52;10.93;;;4.55;;
22017;SDS011;11173;51.050;7.108;2024-01-27T07:36:53;10.02;;;4.53;;
22017;SDS011;11173;51.050;7.108;2024-01-27T07:46:53;9.32;;;4.50;;
22017;SDS011;11173;51.050;7.108;2024-01-27T07:56:53;11.98;;;4.55;;
22017;SDS011;11173;51.050;7.108;2024-01-27T08:06:53;2.60;;;2.40;;
22017;SDS011;11173;51.050;7.108;2024-01-27T08:16:54;1.80;;;1.70;;
22017;SDS011;11173;51.050;7.108;2024-01-27T08:26:54;1.50;;;1.40;;
22017;SDS011;11173;51.050;7.108;2024-01-27T08:36:59;1.20;;;1.20;;
22017;SDS011;11173;51.050;7.108;2024-01-27T08:47:00;1.30;;;1.30;;
22017;SDS011;11173;51.050;7.108;2024-01-27T08:57:00;1.30;;;1.30;;
22017;SDS011;11173;51.050;7.108;2024-01-27T09:07:00;2.08;;;1.50;;
22017;SDS011;11173;51.050;7.108;2024-01-27T09:17:00;2.22;;;1.38;;
22017;SDS011;11173;51.050;7.108;2024-01-27T09:27:01;1.30;;;1.20;;
22017;SDS011;11173;51.050;7.108;2024-01-27T09:37:02;1.02;;;1.00;;
22017;SDS011;11173;51.050;7.108;2024-01-27T09:47:03;2.45;;;1.73;;
22017;SDS011;11173;51.050;7.108;2024-01-27T09:57:03;4.55;;;2.28;;
22017;SDS011;11173;51.050;7.108;2024-01-27T10:07:04;1.83;;;1.67;;
22017;SDS011;11173;51.050;7.108;2024-01-27T10:17:04;1.40;;;1.30;;
22017;SDS011;11173;51.050;7.108;2024-01-27T10:27:06;1.02;;;0.88;;
22017;SDS011;11173;51.050;7.108;2024-01-27T10:37:06;0.60;;;0.60;;
22017;SDS011;11173;51.050;7.108;2024-01-27T10:47:06;0.73;;;0.70;;
22017;SDS011;11173;51.050;7.108;2024-01-27T10:57:08;1.67;;;0.70;;
22017;SDS011;11173;51.050;7.108;2024-01-27T11:07:09;0.80;;;0.80;;
22017;SDS011;11173;51.050;7.108;2024-01-27T11:17:10;0.60;;;0.60;;
22017;SDS011;11173;51.050;7.108;2024-01-27T11:27:11;0.65;;;0.65;;
22017;SDS011;11173;51.050;7.108;2024-01-27T11:37:14;3.08;;;0.77;;
22017;SDS011;11173;51.050;7.108;2024-01-27T11:47:18;0.60;;;0.60;;
22017;SDS011;11173;51.050;7.108;2024-01-27T11:57:18;0.60;;;0.60;;
22017;SDS011;11173;51.050;7.108;2024-01-27T12:07:19;0.63;;;0.63;;
22017;SDS011;11173;51.050;7.108;2024-01-27T12:17:19;2.30;;;0.83;;
22017;SDS011;11173;51.050;7.108;2024-01-27T12:27:21;2.63;;;1.23;;
22017;SDS011;11173;51.050;7.108;2024-01-27T12:37:21;1.77;;;0.80;;
22017;SDS011;11173;51.050;7.108;2024-01-27T12:47:22;2.22;;;1.02;;
22017;SDS011;11173;51.050;7.108;2024-01-27T12:57:22;1.05;;;0.80;;
22017;SDS011;11173;51.050;7.108;2024-01-27T13:07:22;1.80;;;1.20;;
22017;SDS011;11173;51.050;7.108;2024-01-27T13:17:22;1.30;;;1.08;;
22017;SDS011;11173;51.050;7.108;2024-01-27T13:27:23;2.17;;;1.20;;
22017;SDS011;11173;51.050;7.108;2024-01-27T13:37:23;1.75;;;1.00;;
22017;SDS011;11173;51.050;7.108;2024-01-27T13:47:23;1.00;;;0.82;;
22017;SDS011;11173;51.050;7.108;2024-01-27T13:57:23;2.58;;;1.42;;
22017;SDS011;11173;51.050;7.108;2024-01-27T14:07:24;0.90;;;0.90;;
22017;SDS011;11173;51.050;7.108;2024-01-27T14:17:24;0.50;;;0.50;;
22017;SDS011;11173;51.050;7.108;2024-01-27T14:27:24;0.57;;;0.52;;
22017;SDS011;11173;51.050;7.108;2024-01-27T14:37:27;0.52;;;0.50;;
22017;SDS011;11173;51.050;7.108;2024-01-27T14:47:28;0.45;;;0.40;;
22017;SDS011;11173;51.050;7.108;2024-01-27T14:57:28;0.57;;;0.50;;
22017;SDS011;11173;51.050;7.108;2024-01-27T15:07:29;0.52;;;0.52;;
22017;SDS011;11173;51.050;7.108;2024-01-27T15:17:30;0.47;;;0.47;;
22017;SDS011;11173;51.050;7.108;2024-01-27T15:27:31;0.50;;;0.50;;
22017;SDS011;11173;51.050;7.108;2024-01-27T15:37:31;0.40;;;0.40;;
22017;SDS011;11173;51.050;7.108;2024-01-27T15:47:31;0.50;;;0.50;;
22017;SDS011;11173;51.050;7.108;2024-01-27T15:57:32;0.50;;;0.50;;
22017;SDS011;11173;51.050;7.108;2024-01-27T16:07:34;0.98;;;0.60;;
22017;SDS011;11173;51.050;7.108;2024-01-27T16:17:34;0.77;;;0.60;;
22017;SDS011;11173;51.050;7.108;2024-01-27T16:27:34;3.60;;;1.80;;
22017;SDS011;11173;51.050;7.108;2024-01-27T16:37:35;3.95;;;1.92;;
22017;SDS011;11173;51.050;7.108;2024-01-27T16:47:35;3.25;;;1.83;;
22017;SDS011;11173;51.050;7.108;2024-01-27T16:57:36;1.48;;;1.38;;
22017;SDS011;11173;51.050;7.108;2024-01-27T17:07:36;2.28;;;1.40;;
22017;SDS011;11173;51.050;7.108;2024-01-27T17:17:36;5.13;;;1.80;;
22017;SDS011;11173;51.050;7.108;2024-01-27T17:27:37;3.63;;;2.28;;
22017;SDS011;11173;51.050;7.108;2024-01-27T17:37:37;5.32;;;2.22;;
22017;SDS011;11173;51.050;7.108;2024-01-27T17:47:37;6.10;;;2.88;;
22017;SDS011;11173;51.050;7.108;2024-01-27T17:57:37;3.45;;;2.38;;
22017;SDS011;11173;51.050;7.108;2024-01-27T18:07:38;3.95;;;2.15;;
22017;SDS011;11173;51.050;7.108;2024-01-27T18:17:39;3.80;;;2.20;;
22017;SDS011;11173;51.050;7.108;2024-01-27T18:27:39;2.97;;;2.13;;
22017;SDS011;11173;51.050;7.108;2024-01-27T18:37:42;6.72;;;3.78;;
22017;SDS011;11173;51.050;7.108;2024-01-27T18:47:42;6.25;;;2.25;;
22017;SDS011;11173;51.050;7.108;2024-01-27T18:57:43;4.40;;;2.45;;
22017;SDS011;11173;51.050;7.108;2024-01-27T19:07:43;5.68;;;2.55;;
22017;SDS011;11173;51.050;7.108;2024-01-27T19:17:45;6.88;;;2.92;;
22017;SDS011;11173;51.050;7.108;2024-01-27T19:27:45;4.20;;;2.35;;
22017;SDS011;11173;51.050;7.108;2024-01-27T19:37:46;4.70;;;2.80;;
22017;SDS011;11173;51.050;7.108;2024-01-27T19:47:46;5.00;;;3.05;;
22017;SDS011;11173;51.050;7.108;2024-01-27T19:57:46;7.07;;;3.13;;
22017;SDS011;11173;51.050;7.108;2024-01-27T20:07:47;5.18;;;3.50;;
22017;SDS011;11173;51.050;7.108;2024-01-27T20:17:47;6.40;;;2.95;;
22017;SDS011;11173;51.050;7.108;2024-01-27T20:27:47;6.78;;;3.20;;
22017;SDS011;11173;51.050;7.108;2024-01-27T20:37:48;11.13;;;3.83;;
22017;SDS011;11173;51.050;7.108;2024-01-27T20:47:48;6.88;;;3.80;;
22017;SDS011;11173;51.050;7.108;2024-01-27T20:57:49;5.03;;;3.42;;
22017;SDS011;11173;51.050;7.108;2024-01-27T21:07:49;8.18;;;3.78;;
22017;SDS011;11173;51.050;7.108;2024-01-27T21:17:50;5.70;;;3.47;;
22017;SDS011;11173;51.050;7.108;2024-01-27T21:27:50;4.97;;;2.75;;
22017;SDS011;11173;51.050;7.108;2024-01-27T21:37:51;7.03;;;2.97;;
22017;SDS011;11173;51.050;7.108;2024-01-27T21:47:51;7.07;;;2.88;;
22017;SDS011;11173;51.050;7.108;2024-01-27T21:57:53;7.70;;;3.25;;
22017;SDS011;11173;51.050;7.108;2024-01-27T22:07:53;9.57;;;3.50;;
22017;SDS011;11173;51.050;7.108;2024-01-27T22:17:54;5.18;;;3.10;;
22017;SDS011;11173;51.050;7.108;2024-01-27T22:27:54;8.32;;;3.63;;
22017;SDS011;11173;51.050;7.108;2024-01-27T22:37:54;8.30;;;3.78;;
22017;SDS011;11173;51.050;7.108;2024-01-27T22:47:55;8.38;;;4.00;;
22017;SDS011;11173;51.050;7.108;2024-01-27T22:57:55;7.65;;;3.50;;
22017;SDS011;11173;51.050;7.108;2024-01-27T23:07:57;10.10;;;3.63;;
22017;SDS011;11173;51.050;7.108;2024-01-27T23:17:58;5.65;;;3.40;;
22017;SDS011;11173;51.050;7.108;2024-01-27T23:27:59;8.13;;;3.33;;
22017;SDS011;11173;51.050;7.108;2024-01-27T23:37:59;5.18;;;2.60;;
22017;SDS011;11173;51.050;7.108;2024-01-27T23:47:59;3.25;;;2.83;;
22017;SDS011;11173;51.050;7.108;2024-01-27T23:58:02;3.53;;;2.65;;
